sensor_id;sensor_type;location;lat;lon;timestamp;P1;durP1;ratioP1;P2;durP2;ratioP2
30185;SDS011;31152;49.190;8.122;2023-08-08T00:02:01;5.07;;;1.25;;
30185;SDS011;31152;49.190;8.122;2023-08-08T00:04:31;4.40;;;1.30;;
30185;SDS011;31152;49.190;8.122;2023-08-08T00:06:58;2.80;;;1.35;;
30185;SDS011;31152;49.190;8.122;2023-08-08T00:09:25;3.25;;;1.15;;
30185;SDS011;31152;49.190;8.122;2023-08-08T00:11:52;1.98;;;1.05;;
30185;SDS011;31152;49.190;8.122;2023-08-08T00:14:26;6.03;;;1.20;;
30185;SDS011;31152;49.190;8.122;2023-08-08T00:16:55;3.85;;;1.23;;
30185;SDS011;31152;49.190;8.122;2023-08-08T00:19:22;2.10;;;1.23;;
30185;SDS011;31152;49.190;8.122;2023-08-08T00:21:49;2.10;;;1.15;;
30185;SDS011;31152;49.190;8.122;2023-08-08T00:24:16;2.58;;;1.05;;
30185;SDS011;31152;49.190;8.122;2023-08-08T00:26:42;6.18;;;1.40;;
30185;SDS011;31152;49.190;8.122;2023-08-08T00:29:09;2.97;;;1.25;;
30185;SDS011;31152;49.190;8.122;2023-08-08T00:31:36;2.80;;;1.13;;
30185;SDS011;31152;49.190;8.122;2023-08-08T00:34:03;5.15;;;1.10;;
30185;SDS011;31152;49.190;8.122;2023-08-08T00:36:30;2.47;;;1.40;;
30185;SDS011;31152;49.190;8.122;2023-08-08T00:38:57;1.33;;;1.15;;
30185;SDS011;31152;49.190;8.122;2023-08-08T00:41:23;3.70;;;1.27;;
30185;SDS011;31152;49.190;8.122;2023-08-08T00:43:51;2.80;;;1.30;;
30185;SDS011;31152;49.190;8.122;2023-08-08T00:46:18;3.10;;;1.10;;
30185;SDS011;31152;49.190;8.122;2023-08-08T00:48:51;2.00;;;1.20;;
30185;SDS011;31152;49.190;8.122;2023-08-08T00:51:19;3.55;;;1.30;;
30185;SDS011;31152;49.190;8.122;2023-08-08T00:53:48;1.83;;;0.90;;
30185;SDS011;31152;49.190;8.122;2023-08-08T00:56:16;2.58;;;1.10;;
30185;SDS011;31152;49.190;8.122;2023-08-08T00:58:46;3.00;;;1.30;;
30185;SDS011;31152;49.190;8.122;2023-08-08T01:01:13;2.25;;;1.10;;
30185;SDS011;31152;49.190;8.122;2023-08-08T01:03:40;2.38;;;1.20;;
30185;SDS011;31152;49.190;8.122;2023-08-08T01:08:55;3.63;;;1.00;;
30185;SDS011;31152;49.190;8.122;2023-08-08T01:11:25;4.13;;;1.48;;
30185;SDS011;31152;49.190;8.122;2023-08-08T01:13:55;3.72;;;1.00;;
30185;SDS011;31152;49.190;8.122;2023-08-08T01:16:23;5.82;;;1.50;;
30185;SDS011;31152;49.190;8.122;2023-08-08T01:18:53;5.28;;;1.63;;
30185;SDS011;31152;49.190;8.122;2023-08-08T01:21:23;3.85;;;1.40;;
30185;SDS011;31152;49.190;8.122;2023-08-08T01:23:56;2.25;;;1.30;;
30185;SDS011;31152;49.190;8.122;2023-08-08T01:26:33;3.28;;;1.10;;
30185;SDS011;31152;49.190;8.122;2023-08-08T01:29:00;3.05;;;1.33;;
30185;SDS011;31152;49.190;8.122;2023-08-08T01:31:29;2.65;;;1.35;;
30185;SDS011;31152;49.190;8.122;2023-08-08T01:33:58;5.45;;;1.67;;
30185;SDS011;31152;49.190;8.122;2023-08-08T01:36:27;1.75;;;1.20;;
30185;SDS011;31152;49.190;8.122;2023-08-08T01:38:59;3.17;;;1.40;;
30185;SDS011;31152;49.190;8.122;2023-08-08T01:41:31;5.70;;;1.30;;
30185;SDS011;31152;49.190;8.122;2023-08-08T01:44:00;1.83;;;1.40;;
30185;SDS011;31152;49.190;8.122;2023-08-08T01:46:30;3.78;;;1.63;;
30185;SDS011;31152;49.190;8.122;2023-08-08T01:48:57;2.10;;;1.20;;
30185;SDS011;31152;49.190;8.122;2023-08-08T01:51:27;2.08;;;1.40;;
30185;SDS011;31152;49.190;8.122;2023-08-08T01:53:53;4.38;;;1.50;;
30185;SDS011;31152;49.190;8.122;2023-08-08T01:56:20;2.88;;;1.60;;
30185;SDS011;31152;49.190;8.122;2023-08-08T01:58:47;7.70;;;1.75;;
30185;SDS011;31152;49.190;8.122;2023-08-08T02:01:14;4.85;;;1.80;;
30185;SDS011;31152;49.190;8.122;2023-08-08T02:03:40;2.42;;;1.40;;
30185;SDS011;31152;49.190;8.122;2023-08-08T02:06:10;6.95;;;2.00;;
30185;SDS011;31152;49.190;8.122;2023-08-08T02:08:41;5.10;;;1.60;;
30185;SDS011;31152;49.190;8.122;2023-08-08T02:11:08;2.95;;;1.50;;
30185;SDS011;31152;49.190;8.122;2023-08-08T02:13:35;3.30;;;1.63;;
30185;SDS011;31152;49.190;8.122;2023-08-08T02:16:05;2.30;;;1.40;;
30185;SDS011;31152;49.190;8.122;2023-08-08T02:18:32;1.58;;;1.42;;
30185;SDS011;31152;49.190;8.122;2023-08-08T02:20:58;3.58;;;1.70;;
30185;SDS011;31152;49.190;8.122;2023-08-08T02:23:25;3.97;;;1.50;;
30185;SDS011;31152;49.190;8.122;2023-08-08T02:25:52;4.80;;;1.70;;
30185;SDS011;31152;49.190;8.122;2023-08-08T02:28:21;4.95;;;1.75;;
30185;SDS011;31152;49.190;8.122;2023-08-08T02:30:48;3.40;;;1.73;;
30185;SDS011;31152;49.190;8.122;2023-08-08T02:33:15;4.53;;;1.75;;
30185;SDS011;31152;49.190;8.122;2023-08-08T02:35:42;4.55;;;1.88;;
30185;SDS011;31152;49.190;8.122;2023-08-08T02:38:08;4.50;;;1.52;;
30185;SDS011;31152;49.190;8.122;2023-08-08T02:40:35;5.50;;;1.95;;
30185;SDS011;31152;49.190;8.122;2023-08-08T02:43:02;3.97;;;1.75;;
30185;SDS011;31152;49.190;8.122;2023-08-08T02:45:31;3.63;;;1.40;;
30185;SDS011;31152;49.190;8.122;2023-08-08T02:47:58;8.70;;;1.88;;
30185;SDS011;31152;49.190;8.122;2023-08-08T02:50:27;2.70;;;1.70;;
30185;SDS011;31152;49.190;8.122;2023-08-08T02:52:54;5.30;;;1.90;;
30185;SDS011;31152;49.190;8.122;2023-08-08T02:55:21;5.28;;;1.77;;
30185;SDS011;31152;49.190;8.122;2023-08-08T02:57:48;4.22;;;1.60;;
30185;SDS011;31152;49.190;8.122;2023-08-08T03:00:14;2.08;;;1.55;;
30185;SDS011;31152;49.190;8.122;2023-08-08T03:02:41;4.95;;;1.90;;
30185;SDS011;31152;49.190;8.122;2023-08-08T03:05:08;2.50;;;1.65;;
30185;SDS011;31152;49.190;8.122;2023-08-08T03:07:35;5.63;;;1.95;;
30185;SDS011;31152;49.190;8.122;2023-08-08T03:10:02;5.97;;;1.70;;
30185;SDS011;31152;49.190;8.122;2023-08-08T03:12:29;4.35;;;1.92;;
30185;SDS011;31152;49.190;8.122;2023-08-08T03:14:56;3.65;;;1.58;;
30185;SDS011;31152;49.190;8.122;2023-08-08T03:17:23;8.48;;;2.13;;
30185;SDS011;31152;49.190;8.122;2023-08-08T03:19:49;4.50;;;2.10;;
30185;SDS011;31152;49.190;8.122;2023-08-08T03:22:16;3.80;;;1.70;;
30185;SDS011;31152;49.190;8.122;2023-08-08T03:24:45;4.40;;;1.80;;
30185;SDS011;31152;49.190;8.122;2023-08-08T03:27:12;4.93;;;1.70;;
30185;SDS011;31152;49.190;8.122;2023-08-08T03:29:39;6.78;;;2.03;;
30185;SDS011;31152;49.190;8.122;2023-08-08T03:32:06;2.88;;;1.90;;
30185;SDS011;31152;49.190;8.122;2023-08-08T03:34:33;7.28;;;1.70;;
30185;SDS011;31152;49.190;8.122;2023-08-08T03:37:02;2.83;;;1.70;;
30185;SDS011;31152;49.190;8.122;2023-08-08T03:39:32;5.05;;;1.73;;
30185;SDS011;31152;49.190;8.122;2023-08-08T03:42:01;2.90;;;1.30;;
30185;SDS011;31152;49.190;8.122;2023-08-08T03:44:28;3.08;;;1.55;;
30185;SDS011;31152;49.190;8.122;2023-08-08T03:46:55;5.65;;;2.35;;
30185;SDS011;31152;49.190;8.122;2023-08-08T03:49:42;4.18;;;2.08;;
30185;SDS011;31152;49.190;8.122;2023-08-08T03:52:09;6.85;;;1.80;;
30185;SDS011;31152;49.190;8.122;2023-08-08T03:54:39;3.25;;;1.70;;
30185;SDS011;31152;49.190;8.122;2023-08-08T03:57:06;3.10;;;1.70;;
30185;SDS011;31152;49.190;8.122;2023-08-08T03:59:33;3.83;;;2.28;;
30185;SDS011;31152;49.190;8.122;2023-08-08T04:01:59;3.08;;;1.80;;
30185;SDS011;31152;49.190;8.122;2023-08-08T04:04:29;3.97;;;2.20;;
30185;SDS011;31152;49.190;8.122;2023-08-08T04:06:56;3.13;;;1.60;;
30185;SDS011;31152;49.190;8.122;2023-08-08T04:09:25;3.25;;;2.00;;
30185;SDS011;31152;49.190;8.122;2023-08-08T04:11:52;2.78;;;1.73;;
30185;SDS011;31152;49.190;8.122;2023-08-08T04:14:18;4.82;;;1.58;;
30185;SDS011;31152;49.190;8.122;2023-08-08T04:16:45;4.95;;;1.60;;
30185;SDS011;31152;49.190;8.122;2023-08-08T04:19:12;3.72;;;1.77;;
30185;SDS011;31152;49.190;8.122;2023-08-08T04:21:39;3.85;;;1.75;;
30185;SDS011;31152;49.190;8.122;2023-08-08T04:24:06;6.60;;;1.75;;
30185;SDS011;31152;49.190;8.122;2023-08-08T04:26:34;6.05;;;1.88;;
30185;SDS011;31152;49.190;8.122;2023-08-08T04:29:00;4.50;;;2.25;;
30185;SDS011;31152;49.190;8.122;2023-08-08T04:31:30;3.85;;;1.95;;
30185;SDS011;31152;49.190;8.122;2023-08-08T04:33:56;4.20;;;2.00;;
30185;SDS011;31152;49.190;8.122;2023-08-08T04:36:27;4.47;;;2.00;;
30185;SDS011;31152;49.190;8.122;2023-08-08T04:38:58;5.68;;;1.63;;
30185;SDS011;31152;49.190;8.122;2023-08-08T04:41:25;8.30;;;2.20;;
30185;SDS011;31152;49.190;8.122;2023-08-08T04:43:57;4.50;;;1.90;;
30185;SDS011;31152;49.190;8.122;2023-08-08T04:46:24;3.60;;;2.00;;
30185;SDS011;31152;49.190;8.122;2023-08-08T04:48:55;3.28;;;1.90;;
30185;SDS011;31152;49.190;8.122;2023-08-08T04:51:23;6.20;;;1.98;;
30185;SDS011;31152;49.190;8.122;2023-08-08T04:53:53;4.22;;;1.90;;
30185;SDS011;31152;49.190;8.122;2023-08-08T04:56:22;4.47;;;1.92;;
30185;SDS011;31152;49.190;8.122;2023-08-08T04:58:53;5.53;;;1.88;;
30185;SDS011;31152;49.190;8.122;2023-08-08T05:01:22;2.50;;;1.80;;
30185;SDS011;31152;49.190;8.122;2023-08-08T05:03:50;5.90;;;2.03;;
30185;SDS011;31152;49.190;8.122;2023-08-08T05:06:21;4.80;;;1.85;;
30185;SDS011;31152;49.190;8.122;2023-08-08T05:08:49;3.63;;;2.33;;
30185;SDS011;31152;49.190;8.122;2023-08-08T05:11:20;8.27;;;3.13;;
30185;SDS011;31152;49.190;8.122;2023-08-08T05:13:49;5.80;;;1.83;;
30185;SDS011;31152;49.190;8.122;2023-08-08T05:16:15;5.25;;;2.08;;
30185;SDS011;31152;49.190;8.122;2023-08-08T05:18:42;3.55;;;1.92;;
30185;SDS011;31152;49.190;8.122;2023-08-08T05:21:11;4.28;;;2.30;;
30185;SDS011;31152;49.190;8.122;2023-08-08T05:23:38;4.35;;;1.92;;
30185;SDS011;31152;49.190;8.122;2023-08-08T05:26:05;5.72;;;2.30;;
30185;SDS011;31152;49.190;8.122;2023-08-08T05:28:31;4.03;;;2.05;;
30185;SDS011;31152;49.190;8.122;2023-08-08T05:30:58;5.47;;;1.80;;
30185;SDS011;31152;49.190;8.122;2023-08-08T05:33:25;3.05;;;1.90;;
30185;SDS011;31152;49.190;8.122;2023-08-08T05:35:52;3.17;;;2.20;;
30185;SDS011;31152;49.190;8.122;2023-08-08T05:38:21;6.85;;;2.40;;
30185;SDS011;31152;49.190;8.122;2023-08-08T05:40:48;2.75;;;1.65;;
30185;SDS011;31152;49.190;8.122;2023-08-08T05:43:15;6.38;;;1.85;;
30185;SDS011;31152;49.190;8.122;2023-08-08T05:45:44;5.43;;;2.35;;
30185;SDS011;31152;49.190;8.122;2023-08-08T05:48:16;4.32;;;1.90;;
30185;SDS011;31152;49.190;8.122;2023-08-08T05:50:45;3.80;;;1.92;;
30185;SDS011;31152;49.190;8.122;2023-08-08T05:53:12;4.53;;;1.83;;
30185;SDS011;31152;49.190;8.122;2023-08-08T05:55:40;5.30;;;2.67;;
30185;SDS011;31152;49.190;8.122;2023-08-08T05:58:10;5.60;;;2.00;;
30185;SDS011;31152;49.190;8.122;2023-08-08T06:00:36;2.78;;;2.08;;
30185;SDS011;31152;49.190;8.122;2023-08-08T06:03:03;3.45;;;1.85;;
30185;SDS011;31152;49.190;8.122;2023-08-08T06:05:30;3.42;;;1.98;;
30185;SDS011;31152;49.190;8.122;2023-08-08T06:07:57;5.22;;;1.92;;
30185;SDS011;31152;49.190;8.122;2023-08-08T06:10:24;6.57;;;2.28;;
30185;SDS011;31152;49.190;8.122;2023-08-08T06:12:53;4.10;;;2.25;;
30185;SDS011;31152;49.190;8.122;2023-08-08T06:15:22;5.35;;;2.22;;
30185;SDS011;31152;49.190;8.122;2023-08-08T06:17:54;3.63;;;1.70;;
30185;SDS011;31152;49.190;8.122;2023-08-08T06:20:23;7.82;;;1.98;;
30185;SDS011;31152;49.190;8.122;2023-08-08T06:22:50;4.13;;;1.33;;
30185;SDS011;31152;49.190;8.122;2023-08-08T06:25:18;5.30;;;1.48;;
30185;SDS011;31152;49.190;8.122;2023-08-08T06:27:45;2.90;;;1.30;;
30185;SDS011;31152;49.190;8.122;2023-08-08T06:30:13;1.70;;;1.30;;
30185;SDS011;31152;49.190;8.122;2023-08-08T06:32:40;3.25;;;1.55;;
30185;SDS011;31152;49.190;8.122;2023-08-08T06:35:07;5.35;;;1.55;;
30185;SDS011;31152;49.190;8.122;2023-08-08T06:37:38;3.28;;;1.40;;
30185;SDS011;31152;49.190;8.122;2023-08-08T06:40:07;4.40;;;1.42;;
30185;SDS011;31152;49.190;8.122;2023-08-08T06:42:34;3.05;;;1.45;;
30185;SDS011;31152;49.190;8.122;2023-08-08T06:45:01;3.58;;;1.20;;
30185;SDS011;31152;49.190;8.122;2023-08-08T06:47:28;2.10;;;1.23;;
30185;SDS011;31152;49.190;8.122;2023-08-08T06:49:57;3.15;;;1.40;;
30185;SDS011;31152;49.190;8.122;2023-08-08T06:52:23;2.95;;;1.20;;
30185;SDS011;31152;49.190;8.122;2023-08-08T06:54:50;4.25;;;1.17;;
30185;SDS011;31152;49.190;8.122;2023-08-08T06:57:19;5.80;;;1.42;;
30185;SDS011;31152;49.190;8.122;2023-08-08T06:59:46;4.53;;;1.45;;
30185;SDS011;31152;49.190;8.122;2023-08-08T07:02:17;2.67;;;1.30;;
30185;SDS011;31152;49.190;8.122;2023-08-08T07:04:45;2.63;;;0.95;;
30185;SDS011;31152;49.190;8.122;2023-08-08T07:07:12;8.45;;;1.20;;
30185;SDS011;31152;49.190;8.122;2023-08-08T07:09:41;3.90;;;1.30;;
30185;SDS011;31152;49.190;8.122;2023-08-08T07:12:08;2.00;;;0.90;;
30185;SDS011;31152;49.190;8.122;2023-08-08T07:14:35;3.83;;;1.20;;
30185;SDS011;31152;49.190;8.122;2023-08-08T07:17:01;3.97;;;0.93;;
30185;SDS011;31152;49.190;8.122;2023-08-08T07:19:29;3.85;;;1.17;;
30185;SDS011;31152;49.190;8.122;2023-08-08T07:21:56;5.03;;;1.02;;
30185;SDS011;31152;49.190;8.122;2023-08-08T07:24:26;1.92;;;0.90;;
30185;SDS011;31152;49.190;8.122;2023-08-08T07:26:57;2.90;;;1.10;;
30185;SDS011;31152;49.190;8.122;2023-08-08T07:29:27;2.63;;;1.00;;
30185;SDS011;31152;49.190;8.122;2023-08-08T07:31:54;1.17;;;0.77;;
30185;SDS011;31152;49.190;8.122;2023-08-08T07:34:21;4.80;;;0.98;;
30185;SDS011;31152;49.190;8.122;2023-08-08T07:36:47;1.98;;;0.88;;
30185;SDS011;31152;49.190;8.122;2023-08-08T07:39:16;3.35;;;0.70;;
30185;SDS011;31152;49.190;8.122;2023-08-08T07:41:43;3.20;;;0.75;;
30185;SDS011;31152;49.190;8.122;2023-08-08T07:44:10;3.22;;;0.90;;
30185;SDS011;31152;49.190;8.122;2023-08-08T07:46:39;4.90;;;0.90;;
30185;SDS011;31152;49.190;8.122;2023-08-08T07:49:06;2.53;;;1.00;;
30185;SDS011;31152;49.190;8.122;2023-08-08T07:51:33;2.83;;;0.80;;
30185;SDS011;31152;49.190;8.122;2023-08-08T07:53:59;1.63;;;1.02;;
30185;SDS011;31152;49.190;8.122;2023-08-08T07:56:31;3.42;;;1.00;;
30185;SDS011;31152;49.190;8.122;2023-08-08T07:58:58;3.55;;;1.17;;
30185;SDS011;31152;49.190;8.122;2023-08-08T08:01:25;3.15;;;1.08;;
30185;SDS011;31152;49.190;8.122;2023-08-08T08:03:53;6.03;;;1.20;;
30185;SDS011;31152;49.190;8.122;2023-08-08T08:06:20;3.03;;;1.00;;
30185;SDS011;31152;49.190;8.122;2023-08-08T08:08:47;4.57;;;0.80;;
30185;SDS011;31152;49.190;8.122;2023-08-08T08:11:14;2.05;;;0.88;;
30185;SDS011;31152;49.190;8.122;2023-08-08T08:13:43;2.10;;;0.85;;
30185;SDS011;31152;49.190;8.122;2023-08-08T08:16:12;2.47;;;0.90;;
30185;SDS011;31152;49.190;8.122;2023-08-08T08:18:41;1.50;;;1.00;;
30185;SDS011;31152;49.190;8.122;2023-08-08T08:21:08;3.53;;;0.93;;
30185;SDS011;31152;49.190;8.122;2023-08-08T08:23:35;2.88;;;0.85;;
30185;SDS011;31152;49.190;8.122;2023-08-08T08:26:02;2.40;;;0.82;;
30185;SDS011;31152;49.190;8.122;2023-08-08T08:28:28;2.78;;;1.10;;
30185;SDS011;31152;49.190;8.122;2023-08-08T08:30:57;0.98;;;0.70;;
30185;SDS011;31152;49.190;8.122;2023-08-08T08:33:30;3.38;;;0.90;;
30185;SDS011;31152;49.190;8.122;2023-08-08T08:35:57;2.80;;;0.95;;
30185;SDS011;31152;49.190;8.122;2023-08-08T08:38:26;3.40;;;1.15;;
30185;SDS011;31152;49.190;8.122;2023-08-08T08:40:56;2.90;;;1.02;;
30185;SDS011;31152;49.190;8.122;2023-08-08T08:43:22;2.08;;;0.90;;
30185;SDS011;31152;49.190;8.122;2023-08-08T08:45:52;2.47;;;1.05;;
30185;SDS011;31152;49.190;8.122;2023-08-08T08:48:23;2.38;;;1.10;;
30185;SDS011;31152;49.190;8.122;2023-08-08T08:50:56;2.75;;;1.20;;
30185;SDS011;31152;49.190;8.122;2023-08-08T08:53:23;3.85;;;1.20;;
30185;SDS011;31152;49.190;8.122;2023-08-08T08:55:53;4.45;;;1.10;;
30185;SDS011;31152;49.190;8.122;2023-08-08T08:58:21;3.50;;;1.20;;
30185;SDS011;31152;49.190;8.122;2023-08-08T09:00:48;2.63;;;0.93;;
30185;SDS011;31152;49.190;8.122;2023-08-08T09:03:16;2.75;;;1.10;;
30185;SDS011;31152;49.190;8.122;2023-08-08T09:05:43;4.22;;;1.00;;
30185;SDS011;31152;49.190;8.122;2023-08-08T09:08:11;3.90;;;1.20;;
30185;SDS011;31152;49.190;8.122;2023-08-08T09:10:44;4.07;;;1.27;;
30185;SDS011;31152;49.190;8.122;2023-08-08T09:13:11;2.53;;;1.00;;
30185;SDS011;31152;49.190;8.122;2023-08-08T09:15:38;3.72;;;1.00;;
30185;SDS011;31152;49.190;8.122;2023-08-08T09:18:06;2.60;;;1.10;;
30185;SDS011;31152;49.190;8.122;2023-08-08T09:20:33;5.32;;;1.10;;
30185;SDS011;31152;49.190;8.122;2023-08-08T09:23:00;4.35;;;1.50;;
30185;SDS011;31152;49.190;8.122;2023-08-08T09:25:27;2.20;;;0.95;;
30185;SDS011;31152;49.190;8.122;2023-08-08T09:27:56;3.38;;;0.70;;
30185;SDS011;31152;49.190;8.122;2023-08-08T09:30:26;4.13;;;0.90;;
30185;SDS011;31152;49.190;8.122;2023-08-08T09:32:59;2.67;;;1.42;;
30185;SDS011;31152;49.190;8.122;2023-08-08T09:35:29;4.18;;;0.95;;
30185;SDS011;31152;49.190;8.122;2023-08-08T09:37:59;4.95;;;1.45;;
30185;SDS011;31152;49.190;8.122;2023-08-08T09:40:26;1.73;;;0.80;;
30185;SDS011;31152;49.190;8.122;2023-08-08T09:42:56;4.95;;;1.33;;
30185;SDS011;31152;49.190;8.122;2023-08-08T09:45:24;5.57;;;1.48;;
30185;SDS011;31152;49.190;8.122;2023-08-08T09:48:01;3.83;;;1.10;;
30185;SDS011;31152;49.190;8.122;2023-08-08T09:50:27;2.80;;;1.10;;
30185;SDS011;31152;49.190;8.122;2023-08-08T09:52:55;2.10;;;0.98;;
30185;SDS011;31152;49.190;8.122;2023-08-08T09:55:25;1.38;;;0.82;;
30185;SDS011;31152;49.190;8.122;2023-08-08T09:57:52;4.63;;;1.20;;
30185;SDS011;31152;49.190;8.122;2023-08-08T10:00:20;1.83;;;1.00;;
30185;SDS011;31152;49.190;8.122;2023-08-08T10:02:47;4.65;;;0.90;;
30185;SDS011;31152;49.190;8.122;2023-08-08T10:05:14;3.10;;;1.00;;
30185;SDS011;31152;49.190;8.122;2023-08-08T10:07:41;3.60;;;1.10;;
30185;SDS011;31152;49.190;8.122;2023-08-08T10:10:08;3.13;;;0.95;;
30185;SDS011;31152;49.190;8.122;2023-08-08T10:12:39;5.10;;;1.25;;
30185;SDS011;31152;49.190;8.122;2023-08-08T10:15:06;3.63;;;1.20;;
30185;SDS011;31152;49.190;8.122;2023-08-08T10:17:44;2.55;;;1.00;;
30185;SDS011;31152;49.190;8.122;2023-08-08T10:20:11;3.95;;;0.90;;
30185;SDS011;31152;49.190;8.122;2023-08-08T10:22:42;3.00;;;0.90;;
30185;SDS011;31152;49.190;8.122;2023-08-08T10:25:18;3.53;;;1.25;;
30185;SDS011;31152;49.190;8.122;2023-08-08T10:27:49;4.38;;;0.90;;
30185;SDS011;31152;49.190;8.122;2023-08-08T10:30:16;8.80;;;1.23;;
30185;SDS011;31152;49.190;8.122;2023-08-08T10:32:47;5.13;;;1.17;;
30185;SDS011;31152;49.190;8.122;2023-08-08T10:35:21;1.90;;;1.00;;
30185;SDS011;31152;49.190;8.122;2023-08-08T10:37:53;2.08;;;1.30;;
30185;SDS011;31152;49.190;8.122;2023-08-08T10:40:21;1.85;;;0.75;;
30185;SDS011;31152;49.190;8.122;2023-08-08T10:42:47;1.55;;;0.82;;
30185;SDS011;31152;49.190;8.122;2023-08-08T10:45:15;2.50;;;1.40;;
30185;SDS011;31152;49.190;8.122;2023-08-08T10:47:43;5.38;;;1.30;;
30185;SDS011;31152;49.190;8.122;2023-08-08T10:50:14;2.97;;;0.85;;
30185;SDS011;31152;49.190;8.122;2023-08-08T10:55:27;7.28;;;1.13;;
30185;SDS011;31152;49.190;8.122;2023-08-08T10:58:05;1.58;;;0.93;;
30185;SDS011;31152;49.190;8.122;2023-08-08T11:00:34;2.40;;;1.35;;
30185;SDS011;31152;49.190;8.122;2023-08-08T11:03:02;2.75;;;1.08;;
30185;SDS011;31152;49.190;8.122;2023-08-08T11:05:32;4.32;;;0.80;;
30185;SDS011;31152;49.190;8.122;2023-08-08T11:08:03;4.55;;;0.95;;
30185;SDS011;31152;49.190;8.122;2023-08-08T11:10:40;2.10;;;1.00;;
30185;SDS011;31152;49.190;8.122;2023-08-08T11:13:08;3.33;;;1.60;;
30185;SDS011;31152;49.190;8.122;2023-08-08T11:15:35;2.47;;;0.80;;
30185;SDS011;31152;49.190;8.122;2023-08-08T11:18:06;2.97;;;1.00;;
30185;SDS011;31152;49.190;8.122;2023-08-08T11:20:35;2.83;;;0.95;;
30185;SDS011;31152;49.190;8.122;2023-08-08T11:23:03;1.58;;;0.98;;
30185;SDS011;31152;49.190;8.122;2023-08-08T11:25:36;3.03;;;1.20;;
30185;SDS011;31152;49.190;8.122;2023-08-08T11:28:08;3.50;;;1.02;;
30185;SDS011;31152;49.190;8.122;2023-08-08T11:30:37;3.72;;;0.98;;
30185;SDS011;31152;49.190;8.122;2023-08-08T11:33:05;4.95;;;1.10;;
30185;SDS011;31152;49.190;8.122;2023-08-08T11:35:42;3.20;;;1.20;;
30185;SDS011;31152;49.190;8.122;2023-08-08T11:38:12;1.98;;;1.10;;
30185;SDS011;31152;49.190;8.122;2023-08-08T11:40:40;4.43;;;1.30;;
30185;SDS011;31152;49.190;8.122;2023-08-08T11:43:07;2.97;;;0.88;;
30185;SDS011;31152;49.190;8.122;2023-08-08T11:45:34;1.95;;;1.00;;
30185;SDS011;31152;49.190;8.122;2023-08-08T11:48:03;2.17;;;0.90;;
30185;SDS011;31152;49.190;8.122;2023-08-08T11:50:32;2.75;;;0.90;;
30185;SDS011;31152;49.190;8.122;2023-08-08T11:53:03;2.55;;;1.40;;
30185;SDS011;31152;49.190;8.122;2023-08-08T11:55:30;7.45;;;1.20;;
30185;SDS011;31152;49.190;8.122;2023-08-08T11:57:57;1.65;;;0.90;;
30185;SDS011;31152;49.190;8.122;2023-08-08T12:00:27;1.75;;;0.82;;
30185;SDS011;31152;49.190;8.122;2023-08-08T12:02:56;2.05;;;1.00;;
30185;SDS011;31152;49.190;8.122;2023-08-08T12:05:26;2.83;;;1.15;;
30185;SDS011;31152;49.190;8.122;2023-08-08T12:07:58;5.60;;;1.00;;
30185;SDS011;31152;49.190;8.122;2023-08-08T12:10:25;1.45;;;0.88;;
30185;SDS011;31152;49.190;8.122;2023-08-08T12:12:55;2.28;;;1.13;;
30185;SDS011;31152;49.190;8.122;2023-08-08T12:15:43;3.00;;;1.00;;
30185;SDS011;31152;49.190;8.122;2023-08-08T12:18:16;1.95;;;0.98;;
30185;SDS011;31152;49.190;8.122;2023-08-08T12:20:51;2.03;;;0.98;;
30185;SDS011;31152;49.190;8.122;2023-08-08T12:23:18;1.55;;;0.93;;
30185;SDS011;31152;49.190;8.122;2023-08-08T12:25:45;14.35;;;1.38;;
30185;SDS011;31152;49.190;8.122;2023-08-08T12:28:12;2.47;;;1.20;;
30185;SDS011;31152;49.190;8.122;2023-08-08T12:30:42;7.72;;;1.20;;
30185;SDS011;31152;49.190;8.122;2023-08-08T12:33:09;3.05;;;1.15;;
30185;SDS011;31152;49.190;8.122;2023-08-08T12:35:38;2.67;;;0.90;;
30185;SDS011;31152;49.190;8.122;2023-08-08T12:38:05;2.33;;;0.98;;
30185;SDS011;31152;49.190;8.122;2023-08-08T12:40:32;3.03;;;0.98;;
30185;SDS011;31152;49.190;8.122;2023-08-08T12:43:00;4.07;;;1.02;;
30185;SDS011;31152;49.190;8.122;2023-08-08T12:45:27;1.15;;;0.95;;
30185;SDS011;31152;49.190;8.122;2023-08-08T12:47:53;3.10;;;1.05;;
30185;SDS011;31152;49.190;8.122;2023-08-08T12:50:20;2.25;;;0.90;;
30185;SDS011;31152;49.190;8.122;2023-08-08T12:52:49;2.83;;;1.08;;
30185;SDS011;31152;49.190;8.122;2023-08-08T12:55:18;1.83;;;1.05;;
30185;SDS011;31152;49.190;8.122;2023-08-08T12:57:46;2.55;;;0.98;;
30185;SDS011;31152;49.190;8.122;2023-08-08T13:00:13;2.33;;;1.17;;
30185;SDS011;31152;49.190;8.122;2023-08-08T13:02:40;2.45;;;1.00;;
30185;SDS011;31152;49.190;8.122;2023-08-08T13:05:07;4.10;;;1.17;;
30185;SDS011;31152;49.190;8.122;2023-08-08T13:07:36;4.18;;;1.08;;
30185;SDS011;31152;49.190;8.122;2023-08-08T13:10:02;3.65;;;0.98;;
30185;SDS011;31152;49.190;8.122;2023-08-08T13:12:30;1.17;;;0.75;;
30185;SDS011;31152;49.190;8.122;2023-08-08T13:14:59;3.88;;;0.80;;
30185;SDS011;31152;49.190;8.122;2023-08-08T13:17:26;6.18;;;0.90;;
30185;SDS011;31152;49.190;8.122;2023-08-08T13:19:53;2.92;;;0.90;;
30185;SDS011;31152;49.190;8.122;2023-08-08T13:22:19;3.08;;;0.80;;
30185;SDS011;31152;49.190;8.122;2023-08-08T13:24:49;1.48;;;1.00;;
30185;SDS011;31152;49.190;8.122;2023-08-08T13:27:16;2.47;;;1.08;;
30185;SDS011;31152;49.190;8.122;2023-08-08T13:29:45;3.45;;;1.23;;
30185;SDS011;31152;49.190;8.122;2023-08-08T13:32:14;2.33;;;0.80;;
30185;SDS011;31152;49.190;8.122;2023-08-08T13:34:44;2.17;;;0.80;;
30185;SDS011;31152;49.190;8.122;2023-08-08T13:37:13;7.00;;;1.10;;
30185;SDS011;31152;49.190;8.122;2023-08-08T13:39:40;2.55;;;1.10;;
30185;SDS011;31152;49.190;8.122;2023-08-08T13:42:08;1.52;;;0.90;;
30185;SDS011;31152;49.190;8.122;2023-08-08T13:44:35;1.83;;;0.90;;
30185;SDS011;31152;49.190;8.122;2023-08-08T13:47:02;2.45;;;0.80;;
30185;SDS011;31152;49.190;8.122;2023-08-08T13:49:29;1.75;;;0.90;;
30185;SDS011;31152;49.190;8.122;2023-08-08T13:52:01;2.15;;;0.93;;
30185;SDS011;31152;49.190;8.122;2023-08-08T13:54:30;5.43;;;0.98;;
30185;SDS011;31152;49.190;8.122;2023-08-08T13:56:56;3.53;;;0.90;;
30185;SDS011;31152;49.190;8.122;2023-08-08T13:59:23;4.32;;;1.10;;
30185;SDS011;31152;49.190;8.122;2023-08-08T14:01:50;1.30;;;0.90;;
30185;SDS011;31152;49.190;8.122;2023-08-08T14:04:17;1.33;;;0.85;;
30185;SDS011;31152;49.190;8.122;2023-08-08T14:06:45;2.38;;;1.00;;
30185;SDS011;31152;49.190;8.122;2023-08-08T14:09:12;1.80;;;0.93;;
30185;SDS011;31152;49.190;8.122;2023-08-08T14:11:40;5.40;;;0.88;;
30185;SDS011;31152;49.190;8.122;2023-08-08T14:14:11;4.13;;;1.10;;
30185;SDS011;31152;49.190;8.122;2023-08-08T14:16:38;1.50;;;0.90;;
30185;SDS011;31152;49.190;8.122;2023-08-08T14:19:08;1.35;;;0.77;;
30185;SDS011;31152;49.190;8.122;2023-08-08T14:21:34;1.85;;;0.90;;
30185;SDS011;31152;49.190;8.122;2023-08-08T14:24:01;2.22;;;1.10;;
30185;SDS011;31152;49.190;8.122;2023-08-08T14:26:33;3.03;;;1.00;;
30185;SDS011;31152;49.190;8.122;2023-08-08T14:29:00;4.15;;;1.10;;
30185;SDS011;31152;49.190;8.122;2023-08-08T14:31:27;1.35;;;0.95;;
30185;SDS011;31152;49.190;8.122;2023-08-08T14:33:54;4.97;;;1.13;;
30185;SDS011;31152;49.190;8.122;2023-08-08T14:36:23;1.58;;;0.80;;
30185;SDS011;31152;49.190;8.122;2023-08-08T14:38:50;2.40;;;0.93;;
30185;SDS011;31152;49.190;8.122;2023-08-08T14:41:16;1.17;;;1.00;;
30185;SDS011;31152;49.190;8.122;2023-08-08T14:43:45;2.25;;;0.88;;
30185;SDS011;31152;49.190;8.122;2023-08-08T14:46:12;1.63;;;0.90;;
30185;SDS011;31152;49.190;8.122;2023-08-08T14:48:39;2.70;;;1.05;;
30185;SDS011;31152;49.190;8.122;2023-08-08T14:51:08;1.63;;;0.95;;
30185;SDS011;31152;49.190;8.122;2023-08-08T14:53:35;3.33;;;1.13;;
30185;SDS011;31152;49.190;8.122;2023-08-08T14:56:02;2.00;;;0.85;;
30185;SDS011;31152;49.190;8.122;2023-08-08T14:58:28;1.73;;;1.00;;
30185;SDS011;31152;49.190;8.122;2023-08-08T15:00:55;5.22;;;1.08;;